createdAt,value
2022-10-03T00:02:01.856Z,2.3
2022-10-03T00:07:01.256Z,2.6
2022-10-03T00:12:01.630Z,2.9
2022-10-03T00:17:01.468Z,2.8
2022-10-03T00:22:01.571Z,2.7
2022-10-03T00:27:01.293Z,2.6
2022-10-03T00:32:01.113Z,2.5
2022-10-03T00:37:01.674Z,2.2
2022-10-03T00:42:01.550Z,2.2
2022-10-03T00:57:01.657Z,2.1
2022-10-03T01:02:01.762Z,1.8
2022-10-03T01:07:01.574Z,2.0
2022-10-03T01:12:01.789Z,2.2
2022-10-03T01:22:01.689Z,2.4
2022-10-03T01:27:01.568Z,2.8
2022-10-03T01:32:01.618Z,2.5
2022-10-03T01:37:01.639Z,2.5
2022-10-03T01:42:01.690Z,2.4
2022-10-03T01:47:01.629Z,2.2
2022-10-03T01:52:01.922Z,2.0
2022-10-03T01:57:15.304Z,1.9
2022-10-03T02:02:01.850Z,1.4
2022-10-03T02:07:01.663Z,1.5
2022-10-03T02:12:01.658Z,1.5
2022-10-03T02:17:01.664Z,1.6
2022-10-03T02:22:01.641Z,2.0
2022-10-03T02:27:01.724Z,2.0
2022-10-03T02:32:01.733Z,2.2
2022-10-03T02:37:01.568Z,2.4
2022-10-03T02:42:01.520Z,2.2
2022-10-03T02:47:01.552Z,2.7
2022-10-03T02:52:01.492Z,3.0
2022-10-03T02:57:01.575Z,3.1
2022-10-03T03:02:01.918Z,3.3
2022-10-03T03:07:01.632Z,3.8
2022-10-03T03:12:01.555Z,3.6
2022-10-03T03:17:01.492Z,4.1
2022-10-03T03:27:01.602Z,4.8
2022-10-03T03:32:01.707Z,5.3
2022-10-03T03:37:01.850Z,5.7
2022-10-03T03:42:01.520Z,5.9
2022-10-03T03:47:01.613Z,5.8
2022-10-03T03:52:01.692Z,5.5
2022-10-03T03:57:01.802Z,5.3
2022-10-03T04:02:01.665Z,4.8
2022-10-03T04:07:01.813Z,4.6
2022-10-03T04:12:01.481Z,4.8
2022-10-03T04:17:01.530Z,5.1
2022-10-03T04:22:01.598Z,5.1
2022-10-03T04:27:01.610Z,5.4
2022-10-03T04:32:01.827Z,5.3
2022-10-03T04:37:01.658Z,5.7
2022-10-03T04:42:01.562Z,5.8
2022-10-03T04:47:01.565Z,6.1
2022-10-03T04:57:01.714Z,6.7
2022-10-03T05:02:01.561Z,6.9
2022-10-03T05:07:01.602Z,6.9
2022-10-03T05:12:01.485Z,6.5
2022-10-03T05:17:01.709Z,7.1
2022-10-03T05:22:01.550Z,6.9
2022-10-03T05:27:12.562Z,6.6
2022-10-03T05:37:01.715Z,6.7
2022-10-03T05:47:01.614Z,6.6
2022-10-03T05:52:01.743Z,6.2
2022-10-03T05:57:01.585Z,6.2
2022-10-03T06:02:01.823Z,6.2
2022-10-03T06:07:01.433Z,6.0
2022-10-03T06:12:01.640Z,6.1
2022-10-03T06:22:01.543Z,6.1
2022-10-03T06:27:01.538Z,6.6
2022-10-03T06:32:01.468Z,6.7
2022-10-03T06:37:01.563Z,6.9
2022-10-03T06:42:01.485Z,7.2
2022-10-03T06:47:01.423Z,8.0
2022-10-03T06:52:01.746Z,7.8
2022-10-03T06:57:01.460Z,7.8
2022-10-03T07:02:01.841Z,7.2
2022-10-03T07:07:01.444Z,7.1
2022-10-03T07:17:01.782Z,7.1
2022-10-03T07:22:01.654Z,7.2
2022-10-03T07:27:01.541Z,7.6
2022-10-03T07:32:01.527Z,8.1
2022-10-03T07:37:01.648Z,7.9
2022-10-03T07:42:01.761Z,8.1
2022-10-03T07:47:01.552Z,8.0
2022-10-03T07:52:01.608Z,7.6
2022-10-03T07:57:01.568Z,6.9
2022-10-03T08:07:01.568Z,6.8
2022-10-03T08:12:01.439Z,7.2
2022-10-03T08:17:16.737Z,7.8
2022-10-03T08:22:01.604Z,8.4
2022-10-03T08:27:01.596Z,8.5
2022-10-03T08:32:01.532Z,8.8
2022-10-03T08:37:17.106Z,8.6
2022-10-03T08:42:01.535Z,8.1
2022-10-03T08:47:01.570Z,7.4
2022-10-03T08:57:16.832Z,6.8
2022-10-03T09:02:01.739Z,6.8
2022-10-03T09:12:01.455Z,7.6
2022-10-03T09:22:01.341Z,7.9
2022-10-03T09:27:01.389Z,8.0
2022-10-03T09:32:01.455Z,7.6
2022-10-03T09:37:01.444Z,7.6
2022-10-03T09:42:17.378Z,7.2
2022-10-03T09:47:12.766Z,6.5
2022-10-03T09:52:08.887Z,5.8
2022-10-03T09:57:01.398Z,5.2
2022-10-03T10:02:01.422Z,4.2
2022-10-03T10:07:01.475Z,3.6
2022-10-03T10:12:01.403Z,3.4
2022-10-03T10:17:01.294Z,3.3
2022-10-03T10:22:01.422Z,2.6
2022-10-03T10:32:01.352Z,2.5
2022-10-03T10:37:01.348Z,2.2
2022-10-03T10:42:01.484Z,2.3
2022-10-03T10:47:01.641Z,2.8
2022-10-03T10:52:16.817Z,2.8
2022-10-03T10:57:01.358Z,2.8
2022-10-03T11:02:01.219Z,2.8
2022-10-03T11:07:11.438Z,2.4
2022-10-03T11:12:01.940Z,2.0
2022-10-03T11:17:16.792Z,1.6
2022-10-03T11:22:01.329Z,1.8
2022-10-03T11:37:01.727Z,1.9
2022-10-03T11:42:01.588Z,2.1
2022-10-03T11:47:01.649Z,2.0
2022-10-03T11:52:16.665Z,2.0
2022-10-03T12:02:01.723Z,1.8
2022-10-03T12:07:01.548Z,1.4
2022-10-03T12:12:01.660Z,1.4
2022-10-03T12:17:01.668Z,1.6
2022-10-03T12:22:01.511Z,1.4
2022-10-03T12:27:01.608Z,1.7
2022-10-03T12:32:01.797Z,6.0
2022-10-03T12:37:01.625Z,6.8
2022-10-03T12:42:01.626Z,6.5
2022-10-03T12:47:03.437Z,6.9
2022-10-03T12:52:01.561Z,6.9
2022-10-03T12:57:16.940Z,3.3
2022-10-03T13:02:01.766Z,2.5
2022-10-03T13:07:20.891Z,2.8
2022-10-03T13:12:01.593Z,2.6
2022-10-03T13:17:01.683Z,2.6
2022-10-03T13:22:11.479Z,2.4
2022-10-03T13:27:01.784Z,2.4
2022-10-03T13:32:01.626Z,2.1
2022-10-03T13:37:01.609Z,2.2
2022-10-03T13:42:01.741Z,2.0
2022-10-03T13:47:01.646Z,2.3
2022-10-03T13:52:01.733Z,2.6
2022-10-03T14:02:01.926Z,2.4
2022-10-03T14:07:01.660Z,2.6
2022-10-03T14:12:01.601Z,1.9
2022-10-03T14:17:01.551Z,1.3
2022-10-03T14:22:01.636Z,1.4
2022-10-03T14:27:01.819Z,1.4
2022-10-03T14:32:01.862Z,1.2
2022-10-03T14:37:01.561Z,1.5
2022-10-03T14:42:17.337Z,1.6
2022-10-03T14:47:01.853Z,1.7
2022-10-03T14:52:04.655Z,1.6
2022-10-03T14:57:01.570Z,1.7
2022-10-03T15:02:01.809Z,1.4
2022-10-03T15:07:01.543Z,1.4
2022-10-03T15:12:01.518Z,1.1
2022-10-03T15:17:01.544Z,0.9
2022-10-03T15:22:01.552Z,1.0
2022-10-03T15:27:01.572Z,1.4
2022-10-03T15:32:01.650Z,1.8
2022-10-03T15:42:01.641Z,2.7
2022-10-03T15:47:01.557Z,3.1
2022-10-03T15:52:01.550Z,2.9
2022-10-03T15:57:01.554Z,2.9
2022-10-03T16:02:17.752Z,3.0
2022-10-03T16:07:07.424Z,3.4
2022-10-03T16:12:01.611Z,3.4
2022-10-03T16:17:01.701Z,3.9
2022-10-03T16:22:01.729Z,3.9
2022-10-03T16:27:01.706Z,3.8
2022-10-03T16:32:01.827Z,4.2
2022-10-03T16:37:01.640Z,3.8
2022-10-03T16:42:01.792Z,3.6
2022-10-03T16:47:01.624Z,3.8
2022-10-03T16:58:01.728Z,3.3
2022-10-03T17:03:01.871Z,3.4
2022-10-03T17:08:30.009Z,3.0
2022-10-03T17:13:04.060Z,2.8
2022-10-03T17:28:01.740Z,2.7
2022-10-03T17:33:01.657Z,2.8
2022-10-03T17:43:01.564Z,2.3
2022-10-03T17:48:01.590Z,2.1
2022-10-03T17:53:01.730Z,2.0
2022-10-03T17:58:01.582Z,1.8
2022-10-03T18:03:01.579Z,1.8
2022-10-03T18:08:01.616Z,1.4
2022-10-03T18:13:01.557Z,1.2
2022-10-03T18:18:01.477Z,1.2
2022-10-03T18:23:01.599Z,1.4
2022-10-03T18:33:01.709Z,1.5
2022-10-03T18:38:01.700Z,1.7
2022-10-03T18:43:01.606Z,1.3
2022-10-03T18:48:01.509Z,1.3
2022-10-03T18:53:08.698Z,1.2
2022-10-03T18:58:01.622Z,1.6
2022-10-03T19:03:01.617Z,1.3
2022-10-03T19:13:01.718Z,1.0
2022-10-03T19:23:01.599Z,0.4
2022-10-03T19:28:01.769Z,0.5
2022-10-03T19:33:01.702Z,0.3
2022-10-03T19:38:01.683Z,0.4
2022-10-03T19:43:06.594Z,0.6
2022-10-03T19:48:01.615Z,0.9
2022-10-03T19:58:01.652Z,1.2
2022-10-03T20:03:01.617Z,1.0
2022-10-03T20:13:01.628Z,1.2
2022-10-03T20:23:01.815Z,1.1
2022-10-03T20:28:01.800Z,1.4
2022-10-03T20:33:01.577Z,1.4
2022-10-03T20:38:01.625Z,1.3
2022-10-03T20:43:01.640Z,1.3
2022-10-03T20:48:01.614Z,1.6
2022-10-03T20:58:01.730Z,1.8
2022-10-03T21:03:01.639Z,2.1
2022-10-03T21:08:01.607Z,2.2
2022-10-03T21:13:01.467Z,2.2
2022-10-03T21:18:01.457Z,2.5
2022-10-03T21:23:01.468Z,2.4
2022-10-03T21:28:01.622Z,1.9
2022-10-03T21:33:01.303Z,1.6
2022-10-03T21:38:01.314Z,1.4
2022-10-03T21:43:01.414Z,1.4
2022-10-03T21:48:01.341Z,1.0
2022-10-03T21:53:01.359Z,1.4
2022-10-03T21:58:01.461Z,1.7
2022-10-03T22:03:01.506Z,1.5
2022-10-03T22:14:01.507Z,2.0
2022-10-03T22:19:01.534Z,1.7
2022-10-03T22:24:01.659Z,2.0
2022-10-03T22:34:09.157Z,2.0
2022-10-03T22:39:01.256Z,2.0
2022-10-03T22:44:01.566Z,1.9
2022-10-03T22:49:01.656Z,1.5
2022-10-03T22:54:01.663Z,1.7
2022-10-03T22:59:01.768Z,1.8
2022-10-03T23:04:01.766Z,1.6
2022-10-03T23:09:01.670Z,1.9
2022-10-03T23:14:01.823Z,2.2
2022-10-03T23:19:01.578Z,2.4
2022-10-03T23:24:01.667Z,2.2
2022-10-03T23:29:01.648Z,2.5
2022-10-03T23:34:01.572Z,2.3
2022-10-03T23:39:01.688Z,1.8
2022-10-03T23:44:17.229Z,1.8
2022-10-03T23:54:01.755Z,1.6
